Time;durP1;ratioP1;P1;durP2;ratioP2;P2;SDS_P1;SDS_P2;PMS_P1;PMS_P2;Temp;Humidity;BMP_temperature;BMP_pressure;BME280_temperature;BME280_humidity;BME280_pressure;Samples;Min_cycle;Max_cycle;Signal;HPM_P1;HPM_P2
2022/03/27 00:02:05;;;;;;;0.50;0.50;;;-1.20;91.90;;;;;;5095030;28;20400;-77
2022/03/27 00:04:31;;;;;;;0.50;0.50;;;-1.20;91.80;;;;;;5095261;28;20107;-78
2022/03/27 00:06:57;;;;;;;0.85;0.73;;;-1.20;91.00;;;;;;5076936;28;20082;-79
2022/03/27 00:09:23;;;;;;;1.50;0.80;;;-1.30;90.90;;;;;;5095146;28;20032;-80
2022/03/27 00:11:49;;;;;;;0.70;0.70;;;-1.30;90.90;;;;;;5095135;28;20131;-80
2022/03/27 00:14:14;;;;;;;1.75;0.80;;;-1.30;90.80;;;;;;5094975;28;20031;-78
2022/03/27 00:16:40;;;;;;;0.98;0.68;;;-1.30;90.50;;;;;;5094884;28;20047;-80
2022/03/27 00:19:06;;;;;;;2.40;0.73;;;-1.30;90.30;;;;;;5094894;28;20102;-80
2022/03/27 00:21:32;;;;;;;3.67;0.82;;;-1.30;89.40;;;;;;5093019;28;20083;-80
2022/03/27 00:23:59;;;;;;;0.82;0.60;;;-1.30;89.30;;;;;;5094166;28;20035;-78
2022/03/27 00:26:25;;;;;;;0.87;0.70;;;-1.20;88.70;;;;;;5094774;28;20031;-80
2022/03/27 00:28:51;;;;;;;0.40;0.40;;;-1.20;88.10;;;;;;5096122;28;20012;-78
2022/03/27 00:31:18;;;;;;;1.40;0.63;;;-1.20;88.20;;;;;;5095823;28;20495;-79
2022/03/27 00:33:45;;;;;;;1.55;1.00;;;-1.20;88.00;;;;;;5076635;28;20089;-79
2022/03/27 00:36:13;;;;;;;1.00;0.73;;;-1.10;88.50;;;;;;5094236;28;20350;-80
2022/03/27 00:38:40;;;;;;;1.25;0.88;;;-1.10;88.80;;;;;;5094421;28;20032;-78
2022/03/27 00:41:06;;;;;;;1.55;0.60;;;-1.10;88.70;;;;;;5094540;28;20027;-79
2022/03/27 00:43:33;;;;;;;1.17;0.80;;;-1.10;88.80;;;;;;5094260;28;20035;-78
2022/03/27 00:45:59;;;;;;;;;;;-1.20;88.80;;;;;;5094760;28;20070;-78
2022/03/27 00:48:25;;;;;;;0.47;0.47;;;-1.20;89.10;;;;;;5076323;28;19952;-77
2022/03/27 00:50:53;;;;;;;1.08;0.75;;;-1.20;89.70;;;;;;5094532;28;20035;-79
2022/03/27 00:53:19;;;;;;;;;;;-1.30;90.20;;;;;;5094678;28;20095;-78
2022/03/27 00:55:45;;;;;;;0.50;0.50;;;-1.20;90.10;;;;;;5094229;28;19927;-78
2022/03/27 00:58:12;;;;;;;1.00;0.75;;;-1.30;90.40;;;;;;5094146;28;20027;-79
2022/03/27 01:00:38;;;;;;;1.15;0.60;;;-1.30;90.70;;;;;;5094428;28;20039;-79
2022/03/27 01:03:05;;;;;;;0.75;0.60;;;-1.40;90.70;;;;;;5095696;28;20032;-79
2022/03/27 01:05:31;;;;;;;1.17;0.70;;;-1.40;90.90;;;;;;5095592;28;20036;-78
2022/03/27 01:08:01;;;;;;;1.05;0.73;;;-1.40;91.40;;;;;;5094358;28;20032;-79
2022/03/27 01:10:27;;;;;;;0.60;0.60;;;-1.40;91.50;;;;;;5094748;28;20017;-79
2022/03/27 01:12:53;;;;;;;0.90;0.73;;;-1.40;91.60;;;;;;5076267;28;20079;-78
2022/03/27 01:15:29;;;;;;;1.45;0.70;;;-1.40;91.70;;;;;;5092961;28;20068;-78
2022/03/27 01:17:55;;;;;;;0.65;0.65;;;-1.30;91.90;;;;;;5093611;28;20016;-78
2022/03/27 01:20:34;;;;;;;4.47;1.85;;;-1.30;92.10;;;;;;5093628;28;20035;-78
2022/03/27 01:23:01;;;;;;;1.92;0.73;;;-1.30;92.40;;;;;;5093439;28;20039;-79
2022/03/27 01:25:27;;;;;;;1.55;0.82;;;-1.30;92.50;;;;;;5093651;28;20500;-78
2022/03/27 01:27:53;;;;;;;2.80;1.00;;;-1.40;92.70;;;;;;5093425;28;20032;-78
2022/03/27 01:30:19;;;;;;;1.08;1.00;;;-1.40;93.00;;;;;;5093217;28;20139;-78
2022/03/27 01:32:46;;;;;;;1.60;0.90;;;-1.40;93.30;;;;;;5093286;28;20028;-77
2022/03/27 01:35:12;;;;;;;1.85;1.45;;;-1.40;93.50;;;;;;5093187;28;20019;-79
2022/03/27 01:37:38;;;;;;;1.10;0.90;;;-1.50;93.80;;;;;;5093290;28;20024;-79
2022/03/27 01:40:05;;;;;;;1.42;0.90;;;-1.40;93.60;;;;;;5093339;28;20017;-79
2022/03/27 01:42:30;;;;;;;3.08;0.82;;;-1.40;93.70;;;;;;5093078;28;20035;-78
2022/03/27 01:44:56;;;;;;;1.00;0.50;;;-1.40;93.80;;;;;;5092155;28;20028;-78
2022/03/27 01:47:22;;;;;;;1.15;0.80;;;-1.40;93.80;;;;;;5092570;28;20033;-77
2022/03/27 01:49:48;;;;;;;0.80;0.70;;;-1.50;94.00;;;;;;5092480;28;20362;-78
2022/03/27 01:52:16;;;;;;;1.02;0.73;;;-1.50;93.90;;;;;;5093090;28;20397;-77
2022/03/27 01:54:42;;;;;;;1.95;0.93;;;-1.50;94.00;;;;;;5092947;28;20024;-77
2022/03/27 01:57:08;;;;;;;4.32;1.10;;;-1.60;94.10;;;;;;5074781;28;20515;-77
2022/03/27 01:59:35;;;;;;;1.80;0.85;;;-1.50;94.10;;;;;;5093088;28;20043;-77
2022/03/27 02:02:01;;;;;;;0.30;0.30;;;-1.50;94.10;;;;;;5092684;28;20032;-78
2022/03/27 02:04:26;;;;;;;1.10;0.68;;;-1.60;93.70;;;;;;5092892;28;20024;-77
2022/03/27 02:06:52;;;;;;;0.95;0.55;;;-1.70;94.10;;;;;;5092944;28;20016;-80
2022/03/27 02:09:26;;;;;;;0.90;0.90;;;-1.70;94.00;;;;;;5105241;27;1400362;-78
2022/03/27 02:11:52;;;;;;;1.13;0.40;;;-1.60;94.00;;;;;;5130467;27;20102;-79
2022/03/27 02:14:17;;;;;;;0.75;0.60;;;-1.60;94.00;;;;;;5129228;28;20132;-78
2022/03/27 02:16:43;;;;;;;1.48;1.00;;;-1.60;94.20;;;;;;5130714;27;20122;-78
2022/03/27 02:19:10;;;;;;;3.83;0.90;;;-1.70;94.00;;;;;;5117021;27;20035;-77
2022/03/27 02:21:37;;;;;;;13.43;1.48;;;-1.70;94.10;;;;;;5108587;28;20132;-78
2022/03/27 02:24:04;;;;;;;0.68;0.68;;;-1.80;94.20;;;;;;5124667;28;20091;-80
2022/03/27 02:26:33;;;;;;;0.57;0.57;;;-1.80;94.50;;;;;;5130126;27;20513;-79
2022/03/27 02:28:59;;;;;;;1.42;0.93;;;-1.80;94.80;;;;;;5129699;27;20027;-79
2022/03/27 02:31:25;;;;;;;0.95;0.60;;;-1.80;95.10;;;;;;5130074;27;20379;-78
2022/03/27 02:33:51;;;;;;;0.75;0.68;;;-1.80;95.40;;;;;;5130066;27;20027;-78
2022/03/27 02:36:17;;;;;;;0.70;0.70;;;-1.90;95.30;;;;;;5130174;27;20477;-80
2022/03/27 02:38:43;;;;;;;1.95;0.70;;;-1.90;95.70;;;;;;5129903;27;20015;-78
2022/03/27 02:41:09;;;;;;;1.13;0.98;;;-2.00;95.80;;;;;;5130176;28;20034;-78
2022/03/27 02:43:38;;;;;;;2.50;0.90;;;-2.00;96.00;;;;;;5128935;28;20019;-77
2022/03/27 02:46:06;;;;;;;1.73;0.98;;;-2.00;96.40;;;;;;5131126;28;20018;-78
2022/03/27 02:48:32;;;;;;;1.17;0.63;;;-2.00;96.40;;;;;;5131515;27;20407;-78
2022/03/27 02:50:57;;;;;;;1.30;1.20;;;-1.90;96.40;;;;;;5131724;28;20103;-78
2022/03/27 02:53:23;;;;;;;2.47;1.40;;;-2.00;96.40;;;;;;5130530;28;20023;-77
2022/03/27 02:55:49;;;;;;;1.08;0.98;;;-2.10;96.10;;;;;;5129604;27;20076;-78
2022/03/27 02:58:15;;;;;;;2.17;0.98;;;-2.10;96.10;;;;;;5129770;27;20023;-78
2022/03/27 03:00:41;;;;;;;2.10;1.02;;;-2.20;96.10;;;;;;5129647;27;20027;-78
2022/03/27 03:03:09;;;;;;;2.08;0.90;;;-2.20;96.20;;;;;;5129424;27;20023;-78
2022/03/27 03:05:39;;;;;;;2.28;1.10;;;-2.10;96.30;;;;;;5129706;27;20119;-78
2022/03/27 03:08:06;;;;;;;1.77;1.20;;;-2.10;96.40;;;;;;5118987;27;20036;-78
2022/03/27 03:10:33;;;;;;;12.02;1.40;;;-2.10;96.40;;;;;;5108987;28;20054;-78
2022/03/27 03:12:58;;;;;;;3.58;1.15;;;-2.10;96.20;;;;;;5108844;28;20401;-78
2022/03/27 03:15:24;;;;;;;1.55;0.85;;;-2.20;96.10;;;;;;5108901;28;20209;-78
2022/03/27 03:17:50;;;;;;;4.15;1.10;;;-2.20;95.90;;;;;;5108423;28;20024;-77
2022/03/27 03:20:17;;;;;;;2.97;1.05;;;-2.20;95.70;;;;;;5097967;28;20027;-77
2022/03/27 03:22:43;;;;;;;1.02;0.75;;;-2.20;96.00;;;;;;5095213;28;20120;-79
2022/03/27 03:25:09;;;;;;;2.35;1.52;;;-2.20;96.10;;;;;;5095149;28;20385;-78
2022/03/27 03:27:36;;;;;;;1.48;1.20;;;-2.20;96.10;;;;;;5094843;28;20028;-78
2022/03/27 03:30:04;;;;;;;3.28;1.25;;;-2.20;95.90;;;;;;5095073;28;20028;-78
2022/03/27 03:32:29;;;;;;;1.48;0.95;;;-2.20;95.90;;;;;;5095748;28;20048;-78
2022/03/27 03:34:58;;;;;;;2.40;1.08;;;-2.20;95.90;;;;;;5093726;28;20176;-79
2022/03/27 03:37:23;;;;;;;4.93;1.08;;;-2.20;95.80;;;;;;5094918;28;20059;-78
2022/03/27 03:39:49;;;;;;;1.98;1.00;;;-2.20;96.00;;;;;;5095723;28;20051;-79
2022/03/27 03:42:15;;;;;;;1.83;1.25;;;-2.20;96.00;;;;;;5117408;28;20085;-77
2022/03/27 03:44:41;;;;;;;2.78;1.10;;;-2.30;94.60;;;;;;5094047;28;20024;-79
2022/03/27 03:47:07;;;;;;;2.45;1.08;;;-2.40;94.00;;;;;;5095144;28;20087;-78
2022/03/27 03:49:33;;;;;;;2.65;1.35;;;-2.50;94.10;;;;;;5095302;28;20054;-78
2022/03/27 03:51:59;;;;;;;2.17;1.45;;;-2.50;93.10;;;;;;5094704;28;20024;-77
2022/03/27 03:54:25;;;;;;;2.78;0.90;;;-2.60;92.70;;;;;;5094658;28;20473;-78
2022/03/27 03:56:51;;;;;;;2.00;0.80;;;-2.70;92.60;;;;;;5094564;28;20402;-79
2022/03/27 03:59:18;;;;;;;1.02;0.57;;;-2.70;92.00;;;;;;5093454;28;20059;-80
2022/03/27 04:01:43;;;;;;;3.00;0.95;;;-2.70;92.10;;;;;;5094415;28;20059;-78
2022/03/27 04:04:09;;;;;;;1.75;0.70;;;-2.70;91.80;;;;;;5094332;28;20501;-79
2022/03/27 04:06:35;;;;;;;0.98;0.70;;;-2.70;91.70;;;;;;5094986;28;20504;-79
2022/03/27 04:09:00;;;;;;;2.45;0.80;;;-2.70;91.50;;;;;;5097349;28;20135;-78
2022/03/27 04:11:26;;;;;;;1.65;0.90;;;-2.60;91.60;;;;;;5094109;28;20035;-78
2022/03/27 04:13:52;;;;;;;4.15;1.40;;;-2.70;91.60;;;;;;5093873;28;20547;-79
2022/03/27 04:16:18;;;;;;;4.40;0.77;;;-2.60;91.70;;;;;;5093923;28;20031;-78
2022/03/27 04:18:44;;;;;;;1.67;0.70;;;-2.70;91.60;;;;;;5093841;28;20016;-79
2022/03/27 04:21:10;;;;;;;12.90;1.67;;;-2.70;91.60;;;;;;5093896;28;20161;-78
2022/03/27 04:23:36;;;;;;;4.28;1.25;;;-2.70;91.30;;;;;;5092207;28;20412;-78
2022/03/27 04:26:03;;;;;;;5.72;1.15;;;-2.80;91.10;;;;;;5093783;28;20032;-79
2022/03/27 04:28:29;;;;;;;2.30;1.23;;;-2.90;91.00;;;;;;5093531;28;20028;-78
2022/03/27 04:30:55;;;;;;;3.47;0.95;;;-2.90;90.90;;;;;;5092628;28;20012;-79
2022/03/27 04:33:21;;;;;;;12.55;1.63;;;-3.00;90.90;;;;;;5093603;28;20032;-79
2022/03/27 04:35:47;;;;;;;3.05;1.20;;;-3.00;91.00;;;;;;5093070;28;20111;-79
2022/03/27 04:38:14;;;;;;;1.45;0.55;;;-3.00;90.90;;;;;;5095667;28;20043;-79
2022/03/27 04:40:40;;;;;;;1.57;0.80;;;-3.00;91.00;;;;;;5096109;28;20024;-79
2022/03/27 04:43:06;;;;;;;1.08;0.90;;;-3.00;91.00;;;;;;5093574;28;20344;-79
2022/03/27 04:45:32;;;;;;;1.55;0.80;;;-2.90;90.90;;;;;;5092174;28;20452;-78
2022/03/27 04:47:58;;;;;;;2.17;0.70;;;-2.90;90.90;;;;;;5092185;28;20152;-77
2022/03/27 04:50:24;;;;;;;2.10;0.75;;;-2.90;91.00;;;;;;5093255;28;20054;-78
2022/03/27 04:52:50;;;;;;;2.78;0.85;;;-2.90;90.80;;;;;;5082301;28;20036;-78
2022/03/27 04:55:15;;;;;;;2.08;1.08;;;-2.80;91.00;;;;;;5073044;28;20108;-77
2022/03/27 04:57:41;;;;;;;1.80;0.90;;;-2.70;91.10;;;;;;5072876;28;20028;-78
2022/03/27 05:00:19;;;;;;;3.03;1.05;;;-2.70;90.60;;;;;;5073108;28;20040;-77
2022/03/27 05:02:45;;;;;;;3.08;0.82;;;-2.70;89.90;;;;;;5082011;28;20016;-78
2022/03/27 05:05:12;;;;;;;1.95;0.70;;;-2.70;87.60;;;;;;5095564;28;20115;-79
2022/03/27 05:07:39;;;;;;;0.95;0.73;;;-2.70;87.10;;;;;;5098962;28;20047;-78
2022/03/27 05:10:06;;;;;;;2.55;0.88;;;-2.70;87.70;;;;;;5094740;28;20028;-78
2022/03/27 05:12:31;;;;;;;1.57;1.10;;;-2.70;86.90;;;;;;5092945;28;20020;-79
2022/03/27 05:14:57;;;;;;;2.00;1.58;;;-2.70;85.80;;;;;;5092982;28;20630;-78
2022/03/27 05:17:23;;;;;;;0.60;0.60;;;-2.70;84.90;;;;;;5091464;28;20516;-77
2022/03/27 05:19:49;;;;;;;2.53;1.45;;;-2.70;84.50;;;;;;5092789;28;20020;-80
2022/03/27 05:22:15;;;;;;;0.60;0.60;;;-2.60;81.00;;;;;;5092685;28;20101;-78
2022/03/27 05:24:41;;;;;;;1.13;0.45;;;-2.50;82.60;;;;;;5090580;28;20469;-79
2022/03/27 05:27:07;;;;;;;0.82;0.68;;;-2.40;81.50;;;;;;5090498;28;20032;-78
2022/03/27 05:29:32;;;;;;;1.25;0.52;;;-2.30;79.40;;;;;;5092162;28;20030;-78
2022/03/27 05:31:58;;;;;;;2.45;0.70;;;-2.20;79.70;;;;;;5092565;28;20024;-78
2022/03/27 05:34:24;;;;;;;2.53;0.85;;;-2.20;79.70;;;;;;5092477;28;20495;-79
2022/03/27 05:36:50;;;;;;;1.50;1.40;;;-2.10;78.90;;;;;;5092369;28;20016;-77
2022/03/27 05:39:17;;;;;;;3.47;1.75;;;-2.20;76.70;;;;;;5092663;28;20358;-77
2022/03/27 05:41:43;;;;;;;1.30;1.05;;;-2.10;77.30;;;;;;5092453;28;20085;-79
2022/03/27 05:44:09;;;;;;;1.45;0.80;;;-2.10;76.30;;;;;;5092851;28;20039;-78
2022/03/27 05:46:35;;;;;;;0.68;0.63;;;-2.20;77.40;;;;;;5093104;28;20036;-79
2022/03/27 05:49:00;;;;;;;1.23;1.00;;;-2.20;77.10;;;;;;5096026;28;20070;-78
2022/03/27 05:51:26;;;;;;;4.63;0.80;;;-2.30;76.50;;;;;;5095467;28;20024;-77
2022/03/27 05:53:52;;;;;;;2.17;0.75;;;-2.50;74.90;;;;;;5090955;28;20039;-77
2022/03/27 05:56:18;;;;;;;3.33;1.48;;;-2.50;77.80;;;;;;5092320;28;20024;-77
2022/03/27 05:58:44;;;;;;;6.57;1.42;;;-2.40;78.70;;;;;;5091715;28;20028;-78
2022/03/27 06:01:09;;;;;;;11.20;0.75;;;-2.50;83.00;;;;;;5092157;28;20477;-79
2022/03/27 06:03:35;;;;;;;14.35;1.77;;;-2.70;85.60;;;;;;5092222;28;20024;-80
2022/03/27 06:06:03;;;;;;;1.15;0.95;;;-2.90;88.40;;;;;;5090671;28;20116;-79
2022/03/27 06:08:29;;;;;;;;;;;-2.90;89.90;;;;;;5091059;28;20454;-78
2022/03/27 06:10:54;;;;;;;3.28;0.93;;;-3.00;90.40;;;;;;5092085;28;19904;-79
2022/03/27 06:13:20;;;;;;;1.70;1.10;;;-3.00;91.20;;;;;;5092452;28;20388;-78
2022/03/27 06:15:47;;;;;;;13.35;1.98;;;-3.00;91.70;;;;;;5091923;28;20024;-77
2022/03/27 06:18:13;;;;;;;3.60;1.10;;;-2.90;91.90;;;;;;5091610;28;20111;-79
2022/03/27 06:20:40;;;;;;;1.85;0.90;;;-2.90;91.40;;;;;;5093444;28;20070;-78
2022/03/27 06:23:06;;;;;;;3.40;1.00;;;-2.70;91.20;;;;;;5094684;28;20020;-79
2022/03/27 06:25:33;;;;;;;3.25;1.17;;;-2.60;90.30;;;;;;5092332;28;20028;-78
2022/03/27 06:27:59;;;;;;;2.40;1.05;;;-2.40;86.30;;;;;;5092234;28;20036;-80
2022/03/27 06:30:27;;;;;;;1.77;0.77;;;-2.20;86.20;;;;;;5093304;28;20032;-78
2022/03/27 06:32:54;;;;;;;2.40;1.17;;;-2.00;81.10;;;;;;5092706;28;20088;-80
2022/03/27 06:35:24;;;;;;;0.63;0.60;;;-1.90;81.10;;;;;;5091774;28;20020;-80
2022/03/27 06:37:51;;;;;;;16.98;1.50;;;-1.70;81.00;;;;;;5091928;28;20024;-79
2022/03/27 06:40:19;;;;;;;4.03;2.13;;;-1.60;78.50;;;;;;5090871;28;20016;-77
2022/03/27 06:42:45;;;;;;;2.80;1.20;;;-1.60;78.00;;;;;;5090729;28;20063;-79
2022/03/27 06:45:13;;;;;;;1.33;1.02;;;-1.70;78.10;;;;;;5092060;28;20020;-79
2022/03/27 06:47:40;;;;;;;4.43;1.15;;;-1.90;76.30;;;;;;5090420;28;20036;-80
2022/03/27 06:50:07;;;;;;;3.38;0.88;;;-2.00;73.80;;;;;;5091970;28;20024;-79
2022/03/27 06:52:35;;;;;;;1.35;1.13;;;-2.10;74.60;;;;;;5091847;28;20024;-78
2022/03/27 06:55:01;;;;;;;1.48;0.90;;;-2.10;74.80;;;;;;5093541;28;20039;-77
2022/03/27 06:57:26;;;;;;;5.53;1.58;;;-2.10;76.60;;;;;;5095735;28;20032;-78
2022/03/27 07:05:22;;;;;;;2.05;0.77;;;-2.10;76.30;;;;;;5095670;28;20032;-79
2022/03/27 07:07:49;;;;;;;2.58;1.40;;;-2.10;77.90;;;;;;5093616;28;20048;-79
2022/03/27 07:10:16;;;;;;;1.92;1.05;;;-2.20;76.20;;;;;;5095278;28;20048;-79
2022/03/27 07:12:43;;;;;;;3.90;1.50;;;-2.40;75.70;;;;;;5095506;28;20103;-79
2022/03/27 07:15:09;;;;;;;2.60;1.17;;;-2.60;76.50;;;;;;5095726;28;20400;-78
2022/03/27 07:17:46;;;;;;;1.13;0.93;;;-2.60;76.70;;;;;;5096586;28;20389;-78
2022/03/27 07:20:16;;;;;;;3.38;1.55;;;-2.50;76.60;;;;;;5096261;28;20528;-79
2022/03/27 07:22:43;;;;;;;1.98;1.25;;;-2.40;76.20;;;;;;5095322;28;20042;-79
2022/03/27 07:25:09;;;;;;;4.82;1.02;;;-2.10;75.70;;;;;;5095099;28;20024;-79
2022/03/27 07:27:37;;;;;;;1.37;0.90;;;-2.00;74.30;;;;;;5091252;28;20021;-79
2022/03/27 07:30:03;;;;;;;;;;;-1.90;73.20;;;;;;5089208;28;20260;-80
2022/03/27 07:32:29;;;;;;;5.22;0.85;;;-1.70;73.70;;;;;;5094408;28;19908;-78
2022/03/27 07:34:56;;;;;;;1.35;0.82;;;-1.60;70.40;;;;;;5094299;28;20024;-78
2022/03/27 07:37:22;;;;;;;4.78;1.85;;;-1.70;69.60;;;;;;5094436;28;20381;-79
2022/03/27 07:39:47;;;;;;;2.67;1.23;;;-1.80;69.70;;;;;;5094230;28;20024;-79
2022/03/27 07:42:13;;;;;;;2.80;0.98;;;-2.00;72.00;;;;;;5094238;28;20044;-79
2022/03/27 07:44:39;;;;;;;7.43;1.65;;;-2.00;72.60;;;;;;5094900;28;20028;-80
2022/03/27 07:47:05;;;;;;;13.43;1.88;;;-2.00;74.00;;;;;;5077822;28;20024;-79
2022/03/27 07:49:31;;;;;;;2.13;1.08;;;-2.10;73.80;;;;;;5093391;28;20039;-82
2022/03/27 07:52:00;;;;;;;1.45;0.80;;;-2.10;72.70;;;;;;5092724;28;20096;-82
2022/03/27 07:54:26;;;;;;;2.50;1.08;;;-2.30;73.60;;;;;;5093686;28;20034;-82
2022/03/27 07:56:52;;;;;;;3.30;1.02;;;-2.30;74.10;;;;;;5084994;28;20032;-80
2022/03/27 07:59:18;;;;;;;2.03;1.42;;;-2.00;74.30;;;;;;5090191;28;20024;-82
2022/03/27 08:01:44;;;;;;;2.47;1.17;;;-1.60;74.10;;;;;;5075021;28;20027;-82
2022/03/27 08:04:10;;;;;;;3.13;1.10;;;-1.60;71.80;;;;;;5080245;28;20020;-78
2022/03/27 08:06:36;;;;;;;2.53;1.35;;;-1.80;71.80;;;;;;5096186;28;20149;-77
2022/03/27 08:09:06;;;;;;;2.33;1.20;;;-1.80;73.30;;;;;;5093683;28;20072;-78
2022/03/27 08:11:33;;;;;;;2.83;1.50;;;-1.60;71.50;;;;;;5093927;28;20019;-79
2022/03/27 08:13:59;;;;;;;2.58;1.13;;;-1.50;69.00;;;;;;5094139;28;20030;-78
2022/03/27 08:16:26;;;;;;;3.03;1.27;;;-1.40;68.50;;;;;;5092772;28;20115;-76
2022/03/27 08:18:52;;;;;;;2.03;1.30;;;-1.50;68.60;;;;;;5093295;28;20019;-78
2022/03/27 08:21:18;;;;;;;5.43;1.58;;;-1.60;70.00;;;;;;5093986;28;20028;-77
2022/03/27 08:23:43;;;;;;;2.70;1.30;;;-1.70;71.50;;;;;;5093410;28;20481;-76
2022/03/27 08:28:53;;;;;;;2.55;1.15;;;-2.30;73.30;;;;;;5093630;28;20051;-77
2022/03/27 08:31:19;;;;;;;3.83;1.10;;;-2.30;73.80;;;;;;5092329;28;20038;-77
2022/03/27 08:33:46;;;;;;;1.20;0.93;;;-2.20;73.70;;;;;;5097146;28;20020;-78
2022/03/27 08:36:12;;;;;;;2.17;1.35;;;-2.00;73.30;;;;;;5092461;28;20086;-78
2022/03/27 08:38:38;;;;;;;4.97;1.40;;;-1.70;70.90;;;;;;5092350;28;20122;-78
2022/03/27 08:41:05;;;;;;;2.50;1.10;;;-1.60;71.10;;;;;;5093546;28;20103;-78
2022/03/27 08:43:33;;;;;;;3.80;1.17;;;-1.40;70.00;;;;;;5091902;28;20031;-76
2022/03/27 08:46:00;;;;;;;2.53;1.40;;;-1.30;68.30;;;;;;5093264;28;20024;-76
2022/03/27 08:48:30;;;;;;;2.70;1.25;;;-1.00;69.30;;;;;;5093229;28;20508;-77
2022/03/27 08:51:34;;;;;;;2.35;1.13;;;-0.80;69.10;;;;;;5093490;28;20393;-78
2022/03/27 08:54:19;;;;;;;2.10;1.25;;;-1.10;68.00;;;;;;5072925;28;20028;-78
2022/03/27 08:57:11;;;;;;;1.77;1.00;;;-1.70;70.40;;;;;;5071405;28;20111;-79
2022/03/27 08:59:39;;;;;;;1.30;1.10;;;-1.80;71.40;;;;;;5072853;28;20032;-76
2022/03/27 09:02:04;;;;;;;2.75;1.15;;;-1.70;69.70;;;;;;5089712;28;20019;-78
2022/03/27 09:04:31;;;;;;;2.28;1.63;;;-0.90;67.50;;;;;;5093654;28;20028;-77
2022/03/27 09:07:00;;;;;;;7.03;1.25;;;-0.80;64.70;;;;;;5092485;28;20397;-75
2022/03/27 09:09:32;;;;;;;2.30;0.82;;;-1.10;65.80;;;;;;5093786;28;20087;-78
2022/03/27 09:11:58;;;;;;;1.13;0.75;;;-1.20;66.20;;;;;;5091853;28;20031;-77
2022/03/27 09:14:25;;;;;;;1.65;1.00;;;-1.30;65.80;;;;;;5094325;28;20026;-78
2022/03/27 09:17:07;;;;;;;1.60;0.90;;;-1.40;66.10;;;;;;5094147;28;20024;-76
2022/03/27 09:19:35;;;;;;;3.40;1.30;;;-1.50;67.20;;;;;;5094033;28;20020;-78
2022/03/27 09:22:34;;;;;;;1.75;1.50;;;-1.80;69.00;;;;;;5093830;28;20020;-78
2022/03/27 09:25:03;;;;;;;5.43;1.48;;;-1.80;71.10;;;;;;5039531;28;20078;-76
2022/03/27 09:27:35;;;;;;;2.47;1.70;;;-1.70;72.80;;;;;;5071487;28;20039;-76
2022/03/27 09:30:07;;;;;;;1.70;1.20;;;-1.00;72.40;;;;;;5072574;28;20040;-79
2022/03/27 09:32:39;;;;;;;2.72;1.38;;;-0.10;68.50;;;;;;5072486;28;20150;-77
2022/03/27 09:35:08;;;;;;;2.40;1.48;;;-0.10;62.30;;;;;;5072625;28;20021;-77
2022/03/27 09:37:54;;;;;;;2.47;1.60;;;-0.20;62.50;;;;;;5088795;28;20032;-77
2022/03/27 09:40:20;;;;;;;5.80;1.88;;;-0.70;64.80;;;;;;5091793;28;20040;-77
2022/03/27 09:42:47;;;;;;;3.47;1.20;;;-1.10;68.20;;;;;;5092502;28;20060;-79
2022/03/27 09:45:15;;;;;;;1.20;0.70;;;-1.00;69.70;;;;;;5093249;28;20069;-77
2022/03/27 09:47:43;;;;;;;3.78;1.52;;;-0.60;68.90;;;;;;5092527;28;20020;-77
2022/03/27 09:50:38;;;;;;;5.35;1.88;;;-0.40;67.60;;;;;;5092691;28;20067;-77
2022/03/27 09:53:26;;;;;;;5.13;1.60;;;-0.70;69.10;;;;;;5092575;28;20024;-78
2022/03/27 09:55:53;;;;;;;5.43;1.83;;;-1.50;73.10;;;;;;5082979;28;20032;-78
2022/03/27 09:58:39;;;;;;;2.22;1.42;;;-1.90;76.70;;;;;;5072078;28;20024;-77
2022/03/27 10:01:16;;;;;;;2.10;1.55;;;-1.60;76.60;;;;;;5083185;28;20132;-78
2022/03/27 10:04:03;;;;;;;3.40;1.42;;;-0.90;75.00;;;;;;5092048;28;20020;-78
2022/03/27 10:06:40;;;;;;;5.03;1.40;;;-0.40;71.00;;;;;;5092084;28;20392;-77
2022/03/27 10:09:09;;;;;;;2.65;1.42;;;0.10;71.00;;;;;;5091757;28;20165;-78
2022/03/27 10:11:40;;;;;;;5.38;1.92;;;0.10;67.30;;;;;;5091934;28;20085;-76
2022/03/27 10:14:07;;;;;;;6.95;2.00;;;-0.50;69.80;;;;;;5090207;28;20564;-77
2022/03/27 10:16:42;;;;;;;8.07;2.03;;;-1.10;77.10;;;;;;5091041;28;20484;-78
2022/03/27 10:19:38;;;;;;;29.10;2.90;;;-1.70;81.90;;;;;;5092197;28;20039;-80
2022/03/27 10:22:06;;;;;;;4.40;1.65;;;-2.20;84.80;;;;;;5089054;28;20044;-78
2022/03/27 10:24:33;;;;;;;7.53;2.22;;;-2.30;87.80;;;;;;5088689;28;20591;-80
2022/03/27 10:27:08;;;;;;;2.43;1.40;;;-1.90;86.00;;;;;;5090645;28;20195;-81
2022/03/27 10:29:35;;;;;;;2.72;1.27;;;-1.70;83.70;;;;;;5093739;28;20043;-82
2022/03/27 10:32:04;;;;;;;2.28;1.55;;;-1.70;82.10;;;;;;5096527;28;20023;-81
2022/03/27 10:35:09;;;;;;;3.72;1.15;;;-1.80;82.70;;;;;;5096021;28;20356;-78
2022/03/27 10:37:41;;;;;;;1.98;1.58;;;-1.40;82.40;;;;;;5094830;28;20028;-79
2022/03/27 10:40:38;;;;;;;3.40;1.13;;;-1.00;79.40;;;;;;5096052;28;20048;-82
2022/03/27 10:43:18;;;;;;;2.80;1.35;;;-0.90;77.40;;;;;;5096590;28;20032;-82
2022/03/27 10:46:05;;;;;;;2.88;1.50;;;-0.90;77.00;;;;;;5075856;28;20028;-81
2022/03/27 10:48:48;;;;;;;3.72;1.35;;;-0.90;76.00;;;;;;5088073;28;20032;-83
2022/03/27 10:51:25;;;;;;;1.80;1.13;;;-1.30;77.80;;;;;;5094596;28;20028;-80
2022/03/27 10:54:08;;;;;;;2.50;1.55;;;-1.50;78.20;;;;;;5096173;28;20047;-81
2022/03/27 10:57:07;;;;;;;4.40;1.38;;;-1.50;79.10;;;;;;5096419;28;20397;-82
2022/03/27 10:59:50;;;;;;;1.85;0.80;;;-1.50;79.40;;;;;;5065466;28;20374;-85
2022/03/27 11:02:46;;;;;;;2.60;1.20;;;-1.60;79.90;;;;;;5086772;28;20020;-81
2022/03/27 11:05:36;;;;;;;4.53;1.20;;;-1.60;79.00;;;;;;5095825;28;20024;-82
2022/03/27 11:08:17;;;;;;;2.42;1.35;;;-1.70;78.90;;;;;;5077278;28;20059;-80
2022/03/27 11:10:42;;;;;;;1.50;0.80;;;-1.90;80.00;;;;;;5076260;28;20020;-80
2022/03/27 11:13:27;;;;;;;2.70;1.00;;;-2.10;79.40;;;;;;5075560;28;20048;-82
2022/03/27 11:16:13;;;;;;;9.18;1.77;;;-2.20;78.30;;;;;;5085802;28;20027;-83
2022/03/27 11:18:41;;;;;;;2.85;1.33;;;-2.20;78.80;;;;;;5094505;28;20120;-81
2022/03/27 11:21:12;;;;;;;2.95;1.63;;;-2.30;79.40;;;;;;5098606;28;20063;-81
2022/03/27 11:23:42;;;;;;;3.88;1.20;;;-2.20;80.20;;;;;;5098017;28;20477;-82
2022/03/27 11:26:20;;;;;;;3.13;1.10;;;-2.10;80.40;;;;;;5098389;28;20032;-79
2022/03/27 11:28:51;;;;;;;3.53;1.27;;;-1.90;79.20;;;;;;5095970;28;20047;-81
2022/03/27 11:31:21;;;;;;;3.42;1.25;;;-1.80;75.20;;;;;;5095784;28;20117;-80
2022/03/27 11:34:09;;;;;;;3.00;1.35;;;-1.70;72.20;;;;;;5092885;28;20024;-79
2022/03/27 11:36:35;;;;;;;;;;;-1.70;73.80;;;;;;5095527;28;20397;-77
2022/03/27 11:39:07;;;;;;;2.20;1.35;;;-1.60;73.80;;;;;;5095738;28;19986;-79
2022/03/27 11:41:44;;;;;;;4.68;1.30;;;-1.70;73.00;;;;;;5094755;28;20016;-79
2022/03/27 11:47:11;;;;;;;1.20;0.85;;;-1.70;72.30;;;;;;5094930;28;20400;-81
2022/03/27 11:49:39;;;;;;;1.23;1.13;;;-1.70;71.70;;;;;;5093836;28;20028;-78
2022/03/27 11:52:13;;;;;;;1.13;0.93;;;-1.70;71.00;;;;;;5095546;28;20024;-78
2022/03/27 11:54:40;;;;;;;4.07;1.40;;;-1.70;71.70;;;;;;5096184;28;20048;-81
2022/03/27 11:57:07;;;;;;;3.78;2.17;;;-1.70;72.70;;;;;;5093964;28;20031;-82
2022/03/27 11:59:51;;;;;;;2.50;1.58;;;-1.50;74.10;;;;;;5087702;28;20035;-77
2022/03/27 12:02:18;;;;;;;12.07;1.50;;;-1.60;74.40;;;;;;5079798;28;20028;-79
2022/03/27 12:04:54;;;;;;;;;;;-1.60;74.50;;;;;;5094533;28;20050;-77
2022/03/27 12:07:24;;;;;;;4.25;1.60;;;-1.50;73.70;;;;;;5094149;28;19911;-78
2022/03/27 12:10:17;;;;;;;5.18;1.50;;;-1.70;72.80;;;;;;5093945;28;20131;-80
2022/03/27 12:13:00;;;;;;;5.18;1.40;;;-1.80;73.60;;;;;;5089364;28;20032;-79
2022/03/27 12:15:41;;;;;;;1.92;1.42;;;-1.80;73.60;;;;;;5090780;28;20153;-81
2022/03/27 12:18:07;;;;;;;6.63;1.27;;;-2.00;73.10;;;;;;5075066;28;20025;-77
2022/03/27 12:20:46;;;;;;;5.60;1.23;;;-2.10;72.90;;;;;;5074031;28;20426;-77
2022/03/27 12:23:20;;;;;;;1.23;1.10;;;-1.90;71.70;;;;;;5073445;28;20394;-78
2022/03/27 12:26:03;;;;;;;1.30;1.10;;;-1.90;70.30;;;;;;5073458;28;20389;-77
2022/03/27 12:31:26;;;;;;;2.75;1.35;;;-1.70;67.60;;;;;;5073451;28;20035;-79
2022/03/27 12:33:55;;;;;;;6.60;1.45;;;-1.70;67.60;;;;;;5073406;28;20028;-77
2022/03/27 12:36:21;;;;;;;2.15;1.10;;;-1.80;68.00;;;;;;5073057;28;20024;-78
2022/03/27 12:38:49;;;;;;;2.85;1.00;;;-2.00;69.00;;;;;;5073125;28;20028;-78
2022/03/27 12:41:37;;;;;;;3.17;1.73;;;-2.10;70.00;;;;;;5071812;28;20024;-78
2022/03/27 12:44:03;;;;;;;1.70;1.10;;;-2.10;70.80;;;;;;5072943;28;20025;-78
2022/03/27 12:46:31;;;;;;;1.58;1.35;;;-2.00;70.10;;;;;;5073305;28;20044;-78
2022/03/27 12:49:05;;;;;;;1.90;1.10;;;-1.90;68.70;;;;;;5093106;28;20040;-76
2022/03/27 12:51:31;;;;;;;3.50;1.20;;;-1.80;66.50;;;;;;5093949;28;20016;-76
2022/03/27 12:54:09;;;;;;;2.50;1.17;;;-1.80;64.10;;;;;;5094904;28;20031;-81
2022/03/27 12:56:55;;;;;;;1.55;1.13;;;-1.80;61.70;;;;;;5092006;28;20115;-77
2022/03/27 12:59:22;;;;;;;1.53;0.83;;;-1.70;60.70;;;;;;5093148;28;20036;-80
2022/03/27 13:02:27;;;;;;;4.07;1.10;;;-1.70;58.40;;;;;;5094387;28;20548;-79
2022/03/27 13:05:00;;;;;;;3.42;1.15;;;-1.80;59.70;;;;;;5093534;28;20504;-77
2022/03/27 13:08:14;;;;;;;18.17;1.30;;;-1.90;61.40;;;;;;5092881;28;20032;-77
2022/03/27 13:10:40;;;;;;;2.90;1.48;;;-2.00;63.40;;;;;;5091435;28;20043;-79
2022/03/27 13:13:42;;;;;;;;;;;;;;;;;;;;;
2022/03/27 13:16:28;;;;;;;4.03;1.35;;;-2.10;65.50;;;;;;5038311;28;20427;-77